KHKS

Hawkins Field Airport

Jackson, Mississippi, USA
METAR KHKS 201553Z 26008G16KT 10SM SCT028 BKN036 BKN044 30/24 A3004 RMK AO2 SLP162 T03000239
Observed Flight Rules
Aug-20 @ 15:53 UTC (32 minutes ago) Visual Flight Rules
Wind Visibility Clouds
260° at 8 knots
 Gusting to 16 knots
10 miles
  • Scattered at 2,800' AGL
  • Broken at 3,600' AGL
  • Broken at 4,400' AGL
Temperatures Readings
Current 30°C / 86°F
Dewpoint 24°C / 75°F
Humidity 70%
Altimeter 30.04" Hg
Pressure 1016.2 hPa
Elevation 108
METAR KHKS 201553Z 26008G16KT 10SM SCT028 BKN036 BKN044 30/24 A3004 RMK AO2 SLP162 T03000239
Observed Flight Rules
Aug-20 @ 15:53 UTC
(32 minutes ago)
VFR
Wind Visibility
260° at 8 knots
 Gusting to 16 knots
10 miles
Clouds
  • Scattered at 2,800' AGL
  • Broken at 3,600' AGL
  • Broken at 4,400' AGL
Temperature Dewpoint
30°C / 86°F 24°C / 75°F
Humidity Altimeter Pressure
70% 30.04" Hg 1016.2 hPa